createdAt,value
2023-04-08T00:00:08.022Z,3.62
2023-04-08T00:02:37.818Z,3.82
2023-04-08T00:05:05.941Z,4.31
2023-04-08T00:07:34.823Z,4.02
2023-04-08T00:10:02.395Z,3.95
2023-04-08T00:12:29.970Z,4.05
2023-04-08T00:14:58.084Z,4.11
2023-04-08T00:17:25.578Z,4.13
2023-04-08T00:19:53.124Z,4.29
2023-04-08T00:22:20.714Z,4.24
2023-04-08T00:24:49.617Z,3.98
2023-04-08T00:27:17.149Z,3.78
2023-04-08T00:29:44.645Z,3.78
2023-04-08T00:32:12.182Z,4.04
2023-04-08T00:34:39.693Z,3.74
2023-04-08T00:37:07.193Z,3.77
2023-04-08T00:39:34.738Z,3.56
2023-04-08T00:42:03.684Z,3.84
2023-04-08T00:44:31.313Z,3.99
2023-04-08T00:46:59.136Z,4.55
2023-04-08T00:49:27.124Z,4.00
2023-04-08T00:51:54.833Z,4.00
2023-04-08T00:54:22.344Z,3.88
2023-04-08T00:56:49.892Z,3.76
2023-04-08T00:59:18.773Z,3.70
2023-04-08T01:01:51.619Z,3.84
2023-04-08T01:04:22.609Z,3.86
2023-04-08T01:06:50.758Z,4.14
2023-04-08T01:09:18.803Z,4.23
2023-04-08T01:11:47.348Z,3.85
2023-04-08T01:14:16.614Z,3.66
2023-04-08T01:16:46.102Z,4.04
2023-04-08T01:19:15.946Z,3.86
2023-04-08T01:21:43.490Z,3.31
2023-04-08T01:24:12.394Z,3.78
2023-04-08T01:26:41.249Z,3.97
2023-04-08T01:29:08.860Z,3.71
2023-04-08T01:31:36.573Z,3.84
2023-04-08T01:34:04.735Z,4.02
2023-04-08T01:36:33.177Z,4.09
2023-04-08T01:39:00.917Z,3.63
2023-04-08T01:41:28.453Z,3.51
2023-04-08T01:43:57.384Z,3.27
2023-04-08T01:46:24.965Z,3.30
2023-04-08T01:48:52.648Z,3.44
2023-04-08T01:51:20.382Z,3.47
2023-04-08T01:53:47.933Z,3.58
2023-04-08T01:56:15.866Z,3.16
2023-04-08T01:58:45.711Z,3.15
2023-04-08T02:01:14.971Z,3.20
2023-04-08T02:03:43.479Z,3.36
2023-04-08T02:06:11.153Z,3.42
2023-04-08T02:08:39.215Z,3.40
2023-04-08T02:11:06.976Z,3.30
2023-04-08T02:13:34.534Z,3.52
2023-04-08T02:16:04.996Z,3.37
2023-04-08T02:18:33.931Z,3.47
2023-04-08T02:21:03.169Z,3.39
2023-04-08T02:23:30.725Z,3.44
2023-04-08T02:25:58.241Z,3.54
2023-04-08T02:28:27.891Z,3.52
2023-04-08T02:30:55.731Z,3.27
2023-04-08T02:33:23.491Z,3.32
2023-04-08T02:35:55.315Z,3.45
2023-04-08T02:38:24.269Z,3.55
2023-04-08T02:40:52.181Z,3.65
2023-04-08T02:43:19.687Z,3.37
2023-04-08T02:45:47.356Z,3.53
2023-04-08T02:48:16.221Z,4.00
2023-04-08T02:50:43.761Z,3.54
2023-04-08T02:53:12.661Z,3.92
2023-04-08T02:55:40.292Z,4.23
2023-04-08T02:58:07.809Z,4.73
2023-04-08T03:00:35.364Z,4.52
2023-04-08T03:03:03.094Z,4.65
2023-04-08T03:05:30.997Z,4.48
2023-04-08T03:07:58.533Z,4.50
2023-04-08T03:10:27.624Z,4.58
2023-04-08T03:12:55.137Z,4.01
2023-04-08T03:15:22.686Z,3.81
2023-04-08T03:17:50.239Z,4.17
2023-04-08T03:20:17.826Z,4.33
2023-04-08T03:22:45.693Z,4.32
2023-04-08T03:25:13.276Z,4.32
2023-04-08T03:27:42.189Z,4.17
2023-04-08T03:30:10.030Z,4.29
2023-04-08T03:32:37.815Z,4.68
2023-04-08T03:35:05.683Z,4.66
2023-04-08T03:37:33.233Z,4.26
2023-04-08T03:40:00.952Z,4.36
2023-04-08T03:42:28.470Z,4.73
2023-04-08T03:44:57.371Z,4.17
2023-04-08T03:47:24.904Z,4.01
2023-04-08T03:49:53.813Z,4.10
2023-04-08T03:52:21.379Z,4.62
2023-04-08T03:54:48.908Z,4.66
2023-04-08T03:57:16.458Z,4.21
2023-04-08T03:59:43.988Z,4.03
2023-04-08T04:02:12.978Z,3.88
2023-04-08T04:04:40.651Z,4.32
2023-04-08T04:07:08.277Z,3.89
2023-04-08T04:09:35.819Z,4.53
2023-04-08T04:12:03.324Z,4.02
2023-04-08T04:14:30.858Z,3.89
2023-04-08T04:16:58.413Z,3.82
2023-04-08T04:19:27.301Z,3.78
2023-04-08T04:21:54.879Z,3.88
2023-04-08T04:24:22.484Z,3.87
2023-04-08T04:26:50.061Z,3.99
2023-04-08T04:29:17.585Z,4.12
2023-04-08T04:31:46.226Z,3.84
2023-04-08T04:34:13.959Z,3.95
2023-04-08T04:36:42.857Z,3.69
2023-04-08T04:39:10.700Z,3.96
2023-04-08T04:41:40.666Z,3.76
2023-04-08T04:44:08.383Z,4.10
2023-04-08T04:46:36.210Z,4.52
2023-04-08T04:49:03.972Z,4.17
2023-04-08T04:51:32.560Z,4.21
2023-04-08T04:54:01.681Z,3.96
2023-04-08T04:56:29.367Z,4.21
2023-04-08T04:58:57.123Z,4.00
2023-04-08T05:01:24.858Z,4.13
2023-04-08T05:03:52.639Z,4.44
2023-04-08T05:06:20.373Z,4.66
2023-04-08T05:08:48.268Z,4.62
2023-04-08T05:11:18.434Z,4.40
2023-04-08T05:13:46.197Z,3.98
2023-04-08T05:16:13.941Z,3.99
2023-04-08T05:18:41.702Z,4.03
2023-04-08T05:21:09.404Z,4.08
2023-04-08T05:23:37.126Z,4.17
2023-04-08T05:26:06.695Z,4.05
2023-04-08T05:28:35.753Z,4.28
2023-04-08T05:31:03.603Z,3.83
2023-04-08T05:33:31.340Z,4.08
2023-04-08T05:35:59.105Z,3.85
2023-04-08T05:38:26.857Z,4.17
2023-04-08T05:40:54.595Z,3.80
2023-04-08T05:43:22.309Z,4.04
2023-04-08T05:45:51.476Z,3.93
2023-04-08T05:48:19.205Z,4.04
2023-04-08T05:50:48.477Z,4.34
2023-04-08T05:53:16.154Z,3.91
2023-04-08T05:55:43.872Z,3.81
2023-04-08T05:58:11.594Z,4.39
2023-04-08T06:00:39.603Z,4.39
2023-04-08T06:03:08.819Z,4.70
2023-04-08T06:05:36.638Z,4.51
2023-04-08T06:08:04.401Z,4.35
2023-04-08T06:10:32.203Z,4.21
2023-04-08T06:12:59.929Z,4.39
2023-04-08T06:15:27.990Z,4.22
2023-04-08T06:17:55.777Z,4.30
2023-04-08T06:20:25.097Z,4.34
2023-04-08T06:22:52.826Z,4.29
2023-04-08T06:25:20.555Z,4.37
2023-04-08T06:27:48.593Z,4.31
2023-04-08T06:30:16.860Z,4.02
2023-04-08T06:32:47.294Z,4.60
2023-04-08T06:35:15.219Z,4.64
2023-04-08T06:37:44.268Z,4.36
2023-04-08T06:40:12.437Z,4.25
2023-04-08T06:42:43.029Z,4.49
2023-04-08T06:45:22.808Z,4.51
2023-04-08T06:47:50.743Z,4.43
2023-04-08T06:50:18.476Z,4.46
2023-04-08T06:52:47.564Z,4.39
2023-04-08T06:55:15.308Z,4.20
2023-04-08T06:57:43.034Z,4.20
2023-04-08T07:00:12.076Z,4.19
2023-04-08T07:02:39.903Z,4.05
2023-04-08T07:05:08.449Z,4.07
2023-04-08T07:07:36.277Z,4.14
2023-04-08T07:10:06.997Z,4.44
2023-04-08T07:12:36.106Z,4.16
2023-04-08T07:15:03.878Z,4.19
2023-04-08T07:17:32.472Z,4.25
2023-04-08T07:20:00.230Z,4.32
2023-04-08T07:22:27.977Z,4.67
2023-04-08T07:24:56.036Z,4.44
2023-04-08T07:27:25.473Z,4.72
2023-04-08T07:29:54.149Z,4.35
2023-04-08T07:32:22.175Z,4.40
2023-04-08T07:34:50.346Z,4.48
2023-04-08T07:37:18.171Z,4.92
2023-04-08T07:39:45.924Z,4.50
2023-04-08T07:42:13.678Z,4.67
2023-04-08T07:44:42.735Z,4.73
2023-04-08T07:47:11.863Z,4.59
2023-04-08T07:49:39.691Z,4.62
2023-04-08T07:52:07.480Z,4.72
2023-04-08T07:54:35.300Z,4.51
2023-04-08T07:57:03.035Z,4.62
2023-04-08T07:59:30.933Z,5.07
2023-04-08T08:02:00.116Z,4.80
2023-04-08T08:04:28.282Z,4.60
2023-04-08T08:06:56.206Z,4.61
2023-04-08T08:09:23.908Z,4.87
2023-04-08T08:11:51.644Z,4.76
2023-04-08T08:14:19.367Z,4.86
2023-04-08T08:16:47.222Z,5.17
2023-04-08T08:19:16.840Z,5.08
2023-04-08T08:21:44.571Z,4.56
2023-04-08T08:24:12.670Z,4.62
2023-04-08T08:26:40.615Z,4.45
2023-04-08T08:29:09.147Z,4.60
2023-04-08T08:31:36.959Z,4.53
2023-04-08T08:34:04.840Z,4.73
2023-04-08T08:36:34.797Z,4.79
2023-04-08T08:39:02.767Z,4.85
2023-04-08T08:41:34.550Z,4.92
2023-04-08T08:44:02.280Z,4.76
2023-04-08T08:46:30.091Z,4.66
2023-04-08T08:48:58.125Z,4.79
2023-04-08T08:51:26.343Z,4.86
2023-04-08T08:53:55.481Z,5.09
2023-04-08T08:56:23.271Z,5.18
2023-04-08T08:58:51.045Z,4.90
2023-04-08T09:01:42.793Z,4.96
2023-04-08T09:04:16.724Z,4.81
2023-04-08T09:06:45.136Z,5.22
2023-04-08T09:09:14.261Z,5.15
2023-04-08T09:11:42.767Z,4.79
2023-04-08T09:14:21.253Z,4.82
2023-04-08T09:16:49.093Z,5.08
2023-04-08T09:19:17.029Z,4.93
2023-04-08T09:21:47.111Z,4.90
2023-04-08T09:24:30.480Z,5.12
2023-04-08T09:26:58.182Z,5.14
2023-04-08T09:29:27.637Z,5.06
2023-04-08T09:31:57.528Z,5.04
2023-04-08T09:34:25.690Z,5.13
2023-04-08T09:36:53.698Z,5.35
2023-04-08T09:39:21.668Z,5.53
2023-04-08T09:41:51.713Z,5.51
2023-04-08T09:44:20.855Z,5.49
2023-04-08T09:46:57.329Z,5.54
2023-04-08T09:49:27.882Z,5.56
2023-04-08T09:52:00.745Z,5.61
2023-04-08T09:54:33.363Z,5.39
2023-04-08T09:57:04.517Z,5.46
2023-04-08T09:59:34.005Z,5.41
2023-04-08T10:02:02.756Z,6.06
2023-04-08T10:04:30.568Z,6.31
2023-04-08T10:06:59.098Z,6.04
2023-04-08T10:09:27.332Z,5.87
2023-04-08T10:11:55.047Z,6.20
2023-04-08T10:14:27.123Z,6.36
2023-04-08T10:17:11.430Z,5.96
2023-04-08T10:19:43.125Z,6.34
2023-04-08T10:22:44.510Z,6.05
2023-04-08T10:25:29.696Z,6.07
2023-04-08T10:27:57.549Z,6.17
2023-04-08T10:30:42.658Z,6.58
2023-04-08T10:33:15.099Z,6.62
2023-04-08T10:35:46.186Z,6.32
2023-04-08T10:38:14.426Z,6.40
2023-04-08T10:40:42.909Z,6.32
2023-04-08T10:43:10.786Z,6.36
2023-04-08T10:45:38.563Z,6.54
2023-04-08T10:48:15.054Z,6.46
2023-04-08T10:50:43.036Z,6.52
2023-04-08T10:53:11.241Z,6.84
2023-04-08T10:55:39.003Z,6.85
2023-04-08T10:58:07.739Z,6.74
2023-04-08T11:00:36.368Z,6.81
2023-04-08T11:03:04.637Z,6.88
2023-04-08T11:05:33.884Z,6.85
2023-04-08T11:08:01.687Z,7.05
2023-04-08T11:10:29.737Z,7.25
2023-04-08T11:12:57.609Z,7.17
2023-04-08T11:15:25.802Z,7.11
2023-04-08T11:17:55.067Z,7.18
2023-04-08T11:20:23.027Z,6.84
2023-04-08T11:22:52.118Z,6.74
2023-04-08T11:25:19.904Z,6.86
2023-04-08T11:27:47.815Z,6.86
2023-04-08T11:30:15.540Z,7.05
2023-04-08T11:32:43.292Z,6.92
2023-04-08T11:35:11.491Z,6.91
2023-04-08T11:37:39.985Z,6.73
2023-04-08T11:40:10.810Z,6.61
2023-04-08T11:42:38.578Z,6.43
2023-04-08T11:45:11.691Z,6.45
2023-04-08T11:47:39.607Z,6.51
2023-04-08T11:50:08.346Z,6.42
2023-04-08T11:52:45.541Z,6.34
2023-04-08T11:55:23.601Z,6.33
2023-04-08T11:57:52.013Z,6.44
2023-04-08T12:00:20.269Z,6.48
2023-04-08T12:02:48.955Z,6.63
2023-04-08T12:05:16.983Z,6.60
2023-04-08T12:07:44.771Z,6.61
2023-04-08T12:10:14.015Z,6.74
2023-04-08T12:12:41.834Z,6.84
2023-04-08T12:15:10.892Z,6.89
2023-04-08T12:17:39.528Z,6.91
2023-04-08T12:20:08.850Z,6.80
2023-04-08T12:22:36.624Z,6.81
2023-04-08T12:25:04.506Z,6.63
2023-04-08T12:27:33.795Z,6.68
2023-04-08T12:30:01.592Z,6.68
2023-04-08T12:32:29.501Z,6.77
2023-04-08T12:34:57.459Z,6.87
2023-04-08T12:37:25.166Z,6.99
2023-04-08T12:39:52.899Z,6.97
2023-04-08T12:42:20.615Z,7.23
2023-04-08T12:44:49.659Z,7.19
2023-04-08T12:47:17.431Z,7.21
2023-04-08T12:52:15.840Z,7.09
2023-04-08T12:54:43.571Z,7.00
2023-04-08T12:57:11.267Z,7.12
2023-04-08T12:59:40.155Z,7.07
2023-04-08T13:02:09.555Z,7.03
2023-04-08T13:04:37.283Z,7.30
2023-04-08T13:07:05.129Z,7.21
2023-04-08T13:09:33.143Z,7.41
2023-04-08T13:12:00.835Z,7.46
2023-04-08T13:14:28.745Z,7.78
2023-04-08T13:16:56.925Z,7.58
2023-04-08T13:19:26.212Z,7.37
2023-04-08T13:21:54.005Z,7.34
2023-04-08T13:24:21.821Z,7.13
2023-04-08T13:26:49.617Z,7.35
2023-04-08T13:29:17.361Z,7.37
2023-04-08T13:31:45.537Z,7.26
2023-04-08T13:34:13.314Z,7.40
2023-04-08T13:36:42.402Z,7.49
2023-04-08T13:39:10.388Z,7.44
2023-04-08T13:41:38.101Z,7.30
2023-04-08T13:44:05.884Z,7.40
2023-04-08T13:46:33.744Z,7.62
2023-04-08T13:49:03.170Z,7.70
2023-04-08T13:51:31.621Z,7.91
2023-04-08T13:54:00.738Z,7.78
2023-04-08T13:56:28.465Z,7.90
2023-04-08T13:58:57.530Z,7.75
2023-04-08T14:01:25.575Z,7.92
2023-04-08T14:03:53.392Z,7.60
2023-04-08T14:06:21.199Z,7.50
2023-04-08T14:08:49.010Z,7.62
2023-04-08T14:11:18.137Z,7.62
2023-04-08T14:13:45.870Z,7.78
2023-04-08T14:16:13.560Z,7.57
2023-04-08T14:18:41.487Z,7.68
2023-04-08T14:21:09.221Z,7.68
2023-04-08T14:23:36.952Z,7.71
2023-04-08T14:26:04.662Z,7.71
2023-04-08T14:28:33.804Z,7.83
2023-04-08T14:31:01.736Z,7.72
2023-04-08T14:33:29.502Z,7.48
2023-04-08T14:35:57.323Z,7.51
2023-04-08T14:38:25.125Z,7.44
2023-04-08T14:40:54.292Z,7.38
2023-04-08T14:43:22.091Z,7.39
2023-04-08T14:45:52.517Z,7.32
2023-04-08T14:48:20.402Z,7.39
2023-04-08T14:50:48.122Z,7.48
2023-04-08T14:53:16.989Z,7.29
2023-04-08T14:55:44.678Z,7.42
2023-04-08T14:58:12.435Z,7.39
2023-04-08T15:00:44.214Z,7.25
2023-04-08T15:03:13.389Z,7.18
2023-04-08T15:05:41.172Z,7.11
2023-04-08T15:08:09.121Z,7.07
2023-04-08T15:10:36.825Z,6.98
2023-04-08T15:13:04.613Z,6.92
2023-04-08T15:15:32.332Z,6.94
2023-04-08T15:18:00.085Z,6.93
2023-04-08T15:20:29.341Z,7.02
2023-04-08T15:22:57.101Z,6.96
2023-04-08T15:25:24.801Z,6.94
2023-04-08T15:27:52.560Z,7.02
2023-04-08T15:30:24.322Z,7.05
2023-04-08T15:32:52.489Z,7.12
2023-04-08T15:35:20.781Z,7.06
2023-04-08T15:37:49.837Z,7.07
2023-04-08T15:40:17.752Z,7.19
2023-04-08T15:42:46.091Z,6.99
2023-04-08T15:45:14.342Z,7.07
2023-04-08T15:47:42.249Z,7.07
2023-04-08T15:50:10.892Z,6.89
2023-04-08T15:52:38.693Z,6.70
2023-04-08T15:55:09.162Z,6.70
2023-04-08T15:57:37.214Z,6.76
2023-04-08T16:00:08.511Z,6.69
2023-04-08T16:02:40.752Z,6.58
2023-04-08T16:05:09.379Z,6.59
2023-04-08T16:07:37.475Z,6.56
2023-04-08T16:10:05.899Z,6.55
2023-04-08T16:12:34.980Z,6.53
2023-04-08T16:15:02.905Z,6.41
2023-04-08T16:17:30.703Z,6.45
2023-04-08T16:19:58.450Z,6.46
2023-04-08T16:22:26.824Z,6.45
2023-04-08T16:24:54.597Z,6.46
2023-04-08T16:27:22.325Z,6.42
2023-04-08T16:29:51.471Z,6.43
2023-04-08T16:32:19.250Z,6.40
2023-04-08T16:34:46.938Z,6.48
2023-04-08T16:37:14.946Z,6.54
2023-04-08T16:39:42.915Z,6.40
2023-04-08T16:42:10.650Z,6.41
2023-04-08T16:44:38.345Z,6.42
2023-04-08T16:47:07.416Z,6.46
2023-04-08T16:49:35.363Z,6.40
2023-04-08T16:52:03.072Z,6.42
2023-04-08T16:54:30.826Z,6.44
2023-04-08T16:56:58.944Z,6.30
2023-04-08T16:59:28.302Z,6.26
2023-04-08T17:01:57.245Z,6.27
2023-04-08T17:04:26.428Z,6.18
2023-04-08T17:06:54.209Z,6.22
2023-04-08T17:09:22.364Z,6.22
2023-04-08T17:11:50.147Z,6.16
2023-04-08T17:14:17.857Z,6.16
2023-04-08T17:16:45.633Z,6.13
2023-04-08T17:19:14.282Z,6.10
2023-04-08T17:21:43.399Z,6.09
2023-04-08T17:24:11.105Z,6.10
2023-04-08T17:26:38.864Z,6.04
2023-04-08T17:29:06.677Z,6.01
2023-04-08T17:31:34.467Z,6.06
2023-04-08T17:34:02.247Z,5.96
2023-04-08T17:36:30.660Z,5.99
2023-04-08T17:38:59.918Z,5.89
2023-04-08T17:41:39.165Z,5.90
2023-04-08T17:44:10.947Z,5.87
2023-04-08T17:46:38.708Z,5.82
2023-04-08T17:49:06.591Z,5.86
2023-04-08T17:51:34.365Z,5.82
2023-04-08T17:54:03.469Z,5.80
2023-04-08T17:56:31.367Z,5.82
2023-04-08T17:58:59.057Z,5.74
2023-04-08T18:01:26.808Z,5.72
2023-04-08T18:03:54.909Z,5.67
2023-04-08T18:06:22.936Z,5.65
2023-04-08T18:08:50.701Z,5.70
2023-04-08T18:11:21.190Z,5.65
2023-04-08T18:13:49.084Z,5.72
2023-04-08T18:16:17.909Z,5.78
2023-04-08T18:18:45.708Z,5.70
2023-04-08T18:21:15.069Z,5.64
2023-04-08T18:23:42.804Z,5.69
2023-04-08T18:26:10.853Z,5.75
2023-04-08T18:28:39.899Z,5.75
2023-04-08T18:31:07.923Z,5.78
2023-04-08T18:33:35.676Z,5.89
2023-04-08T18:36:07.799Z,5.79
2023-04-08T18:38:36.263Z,5.69
2023-04-08T18:41:04.562Z,5.65
2023-04-08T18:43:32.321Z,5.70
2023-04-08T18:46:01.544Z,5.65
2023-04-08T18:48:29.607Z,6.07
2023-04-08T18:50:57.641Z,6.15
2023-04-08T18:53:25.498Z,6.20
2023-04-08T18:56:01.040Z,6.56
2023-04-08T18:58:29.040Z,6.43
2023-04-08T19:00:57.021Z,6.49
2023-04-08T19:03:27.285Z,6.70
2023-04-08T19:05:55.531Z,6.61
2023-04-08T19:08:23.335Z,6.67
2023-04-08T19:10:51.074Z,6.75
2023-04-08T19:13:18.855Z,6.77
2023-04-08T19:15:47.062Z,6.95
2023-04-08T19:18:14.848Z,6.72
2023-04-08T19:20:44.154Z,6.31
2023-04-08T19:23:11.926Z,6.05
2023-04-08T19:25:39.625Z,5.66
2023-04-08T19:28:09.216Z,5.59
2023-04-08T19:30:37.648Z,5.57
2023-04-08T19:33:05.643Z,5.41
2023-04-08T19:35:33.395Z,5.38
2023-04-08T19:38:02.632Z,5.49
2023-04-08T19:40:30.392Z,5.70
2023-04-08T19:42:58.190Z,5.59
2023-04-08T19:45:26.142Z,5.89
2023-04-08T19:47:54.126Z,6.33
2023-04-08T19:50:22.366Z,5.75
2023-04-08T19:52:50.270Z,5.58
2023-04-08T19:55:19.763Z,5.10
2023-04-08T19:57:47.610Z,5.04
2023-04-08T20:00:15.596Z,4.99
2023-04-08T20:02:43.616Z,4.88
2023-04-08T20:05:14.945Z,5.61
2023-04-08T20:07:42.870Z,5.78
2023-04-08T20:10:11.200Z,5.63
2023-04-08T20:12:41.397Z,5.66
2023-04-08T20:15:22.785Z,5.24
2023-04-08T20:17:52.639Z,5.51
2023-04-08T20:20:20.738Z,5.21
2023-04-08T20:22:48.560Z,4.96
2023-04-08T20:25:16.392Z,4.89
2023-04-08T20:27:45.753Z,5.17
2023-04-08T20:30:14.192Z,5.60
2023-04-08T20:32:41.992Z,5.78
2023-04-08T20:35:10.079Z,5.11
2023-04-08T20:37:37.914Z,4.92
2023-04-08T20:40:06.861Z,5.05
2023-04-08T20:42:34.656Z,5.27
2023-04-08T20:45:04.101Z,5.15
2023-04-08T20:47:31.825Z,5.04
2023-04-08T20:49:59.836Z,4.83
2023-04-08T20:52:27.639Z,4.56
2023-04-08T20:54:55.379Z,4.72
2023-04-08T20:57:23.150Z,4.12
2023-04-08T20:59:50.863Z,4.11
2023-04-08T21:02:21.630Z,4.54
2023-04-08T21:04:49.745Z,4.85
2023-04-08T21:07:17.500Z,5.02
2023-04-08T21:09:48.042Z,4.64
2023-04-08T21:12:15.967Z,4.49
2023-04-08T21:14:45.262Z,4.28
2023-04-08T21:17:13.001Z,4.09
2023-04-08T21:19:42.097Z,4.06
2023-04-08T21:22:09.892Z,3.83
2023-04-08T21:24:38.070Z,4.13
2023-04-08T21:27:06.138Z,4.16
2023-04-08T21:29:33.847Z,4.13
2023-04-08T21:32:01.596Z,4.18
2023-04-08T21:34:29.358Z,4.32
2023-04-08T21:36:58.460Z,4.35
2023-04-08T21:39:26.307Z,4.52
2023-04-08T21:41:54.039Z,4.56
2023-04-08T21:44:22.345Z,4.16
2023-04-08T21:46:50.261Z,4.06
2023-04-08T21:49:18.165Z,4.20
2023-04-08T21:51:45.951Z,4.19
2023-04-08T21:54:15.119Z,3.99
2023-04-08T21:56:43.490Z,3.84
2023-04-08T21:59:11.209Z,3.75
2023-04-08T22:01:39.017Z,4.17
2023-04-08T22:04:06.855Z,3.90
2023-04-08T22:06:34.642Z,4.11
2023-04-08T22:09:02.351Z,4.12
2023-04-08T22:11:31.462Z,4.34
2023-04-08T22:13:59.266Z,4.07
2023-04-08T22:16:27.089Z,4.05
2023-04-08T22:18:54.986Z,3.55
2023-04-08T22:21:22.765Z,3.87
2023-04-08T22:23:50.579Z,3.59
2023-04-08T22:26:18.389Z,3.99
2023-04-08T22:28:47.439Z,3.82
2023-04-08T22:31:15.487Z,3.56
2023-04-08T22:33:43.213Z,3.19
2023-04-08T22:36:11.047Z,3.61
2023-04-08T22:38:38.771Z,3.68
2023-04-08T22:41:06.517Z,3.92
2023-04-08T22:43:34.232Z,3.88
2023-04-08T22:46:03.330Z,3.03
2023-04-08T22:48:31.039Z,3.25
2023-04-08T22:50:58.749Z,3.26
2023-04-08T22:53:27.536Z,3.00
2023-04-08T22:55:55.375Z,2.95
2023-04-08T22:58:23.201Z,2.81
2023-04-08T23:00:51.073Z,2.99
2023-04-08T23:03:20.447Z,2.70
2023-04-08T23:05:48.262Z,1.86
2023-04-08T23:08:16.207Z,2.06
2023-04-08T23:10:43.952Z,2.32
2023-04-08T23:13:11.788Z,1.82
2023-04-08T23:15:39.662Z,2.29
2023-04-08T23:18:07.427Z,2.25
2023-04-08T23:20:36.568Z,2.51
2023-04-08T23:23:04.406Z,2.90
2023-04-08T23:25:32.169Z,2.66
2023-04-08T23:27:59.910Z,2.27
2023-04-08T23:30:27.665Z,1.72
2023-04-08T23:32:55.776Z,1.90
2023-04-08T23:35:23.527Z,1.77
2023-04-08T23:37:52.692Z,1.73
2023-04-08T23:40:20.827Z,1.95
2023-04-08T23:42:48.560Z,2.28
2023-04-08T23:45:16.480Z,2.25
2023-04-08T23:47:44.266Z,2.07
2023-04-08T23:50:12.301Z,1.89
2023-04-08T23:52:40.099Z,1.90
2023-04-08T23:55:10.013Z,1.84
2023-04-08T23:57:37.733Z,1.78
